sensor_id;sensor_type;location;lat;lon;timestamp;temperature;humidity
56308;DHT22;42217;50.422;7.210;2023-03-12T00:01:59;-0.40;99.90
56308;DHT22;42217;50.422;7.210;2023-03-12T00:04:25;-0.40;99.90
56308;DHT22;42217;50.422;7.210;2023-03-12T00:06:51;-0.50;99.90
56308;DHT22;42217;50.422;7.210;2023-03-12T00:09:17;-0.40;99.90
56308;DHT22;42217;50.422;7.210;2023-03-12T00:11:42;-0.50;99.90
56308;DHT22;42217;50.422;7.210;2023-03-12T00:14:08;-0.60;99.90
56308;DHT22;42217;50.422;7.210;2023-03-12T00:16:34;-0.60;99.90
56308;DHT22;42217;50.422;7.210;2023-03-12T00:18:59;-0.70;99.90
56308;DHT22;42217;50.422;7.210;2023-03-12T00:21:25;-0.70;99.90
56308;DHT22;42217;50.422;7.210;2023-03-12T00:23:51;-0.70;99.90
56308;DHT22;42217;50.422;7.210;2023-03-12T00:26:19;-0.60;99.90
56308;DHT22;42217;50.422;7.210;2023-03-12T00:28:47;-0.50;99.90
56308;DHT22;42217;50.422;7.210;2023-03-12T00:31:32;-0.40;99.90
56308;DHT22;42217;50.422;7.210;2023-03-12T00:34:00;-0.40;99.90
56308;DHT22;42217;50.422;7.210;2023-03-12T00:36:27;-0.30;99.90
56308;DHT22;42217;50.422;7.210;2023-03-12T00:38:54;-0.30;99.90
56308;DHT22;42217;50.422;7.210;2023-03-12T00:41:21;-0.20;99.90
56308;DHT22;42217;50.422;7.210;2023-03-12T00:43:48;-0.10;99.90
56308;DHT22;42217;50.422;7.210;2023-03-12T00:46:13;-0.10;99.90
56308;DHT22;42217;50.422;7.210;2023-03-12T00:48:39;-0.10;99.90
56308;DHT22;42217;50.422;7.210;2023-03-12T00:51:05;-0.20;99.90
56308;DHT22;42217;50.422;7.210;2023-03-12T00:53:31;-0.20;99.90
56308;DHT22;42217;50.422;7.210;2023-03-12T00:55:57;-0.30;99.90
56308;DHT22;42217;50.422;7.210;2023-03-12T00:58:22;-0.30;99.90
56308;DHT22;42217;50.422;7.210;2023-03-12T01:00:48;-0.20;99.90
56308;DHT22;42217;50.422;7.210;2023-03-12T01:03:14;-0.10;99.90
56308;DHT22;42217;50.422;7.210;2023-03-12T01:05:40;0.00;99.90
56308;DHT22;42217;50.422;7.210;2023-03-12T01:08:07;0.00;99.90
56308;DHT22;42217;50.422;7.210;2023-03-12T01:10:33;0.00;99.90
56308;DHT22;42217;50.422;7.210;2023-03-12T01:12:59;0.00;99.90
56308;DHT22;42217;50.422;7.210;2023-03-12T01:15:25;-0.10;99.90
56308;DHT22;42217;50.422;7.210;2023-03-12T01:17:51;-0.10;99.90
56308;DHT22;42217;50.422;7.210;2023-03-12T01:20:17;-0.20;99.90
56308;DHT22;42217;50.422;7.210;2023-03-12T01:22:43;-0.20;99.90
56308;DHT22;42217;50.422;7.210;2023-03-12T01:25:09;-0.20;99.90
56308;DHT22;42217;50.422;7.210;2023-03-12T01:27:35;-0.20;99.90
56308;DHT22;42217;50.422;7.210;2023-03-12T01:30:02;-0.20;99.90
56308;DHT22;42217;50.422;7.210;2023-03-12T01:32:28;-0.20;99.90
56308;DHT22;42217;50.422;7.210;2023-03-12T01:34:54;0.00;99.90
56308;DHT22;42217;50.422;7.210;2023-03-12T01:37:20;0.20;99.90
56308;DHT22;42217;50.422;7.210;2023-03-12T01:39:45;0.40;99.90
56308;DHT22;42217;50.422;7.210;2023-03-12T01:42:11;0.40;99.90
56308;DHT22;42217;50.422;7.210;2023-03-12T01:44:55;0.50;99.90
56308;DHT22;42217;50.422;7.210;2023-03-12T01:47:21;0.50;99.90
56308;DHT22;42217;50.422;7.210;2023-03-12T01:49:49;0.40;99.90
56308;DHT22;42217;50.422;7.210;2023-03-12T01:57:18;0.20;99.90
56308;DHT22;42217;50.422;7.210;2023-03-12T01:59:48;0.10;99.90
56308;DHT22;42217;50.422;7.210;2023-03-12T02:02:15;0.20;99.90
56308;DHT22;42217;50.422;7.210;2023-03-12T02:04:44;0.60;93.90
56308;DHT22;42217;50.422;7.210;2023-03-12T02:07:15;0.90;91.90
56308;DHT22;42217;50.422;7.210;2023-03-12T02:09:44;1.20;79.20
56308;DHT22;42217;50.422;7.210;2023-03-12T02:12:10;1.40;74.40
56308;DHT22;42217;50.422;7.210;2023-03-12T02:14:36;1.50;69.80
56308;DHT22;42217;50.422;7.210;2023-03-12T02:17:03;1.60;48.10
56308;DHT22;42217;50.422;7.210;2023-03-12T02:22:02;1.60;45.20
56308;DHT22;42217;50.422;7.210;2023-03-12T02:27:31;1.60;31.70
56308;DHT22;42217;50.422;7.210;2023-03-12T02:29:58;1.60;44.90
56308;DHT22;42217;50.422;7.210;2023-03-12T02:32:27;1.60;31.30
56308;DHT22;42217;50.422;7.210;2023-03-12T02:34:55;1.60;24.90
56308;DHT22;42217;50.422;7.210;2023-03-12T02:37:21;1.70;37.30
56308;DHT22;42217;50.422;7.210;2023-03-12T02:39:55;1.90;20.10
56308;DHT22;42217;50.422;7.210;2023-03-12T02:42:23;1.80;17.60
56308;DHT22;42217;50.422;7.210;2023-03-12T02:44:49;1.90;14.80
56308;DHT22;42217;50.422;7.210;2023-03-12T02:47:14;1.90;17.30
56308;DHT22;42217;50.422;7.210;2023-03-12T02:49:40;1.80;19.00
56308;DHT22;42217;50.422;7.210;2023-03-12T02:52:06;1.90;18.00
56308;DHT22;42217;50.422;7.210;2023-03-12T02:54:32;1.80;17.80
56308;DHT22;42217;50.422;7.210;2023-03-12T02:56:58;1.90;20.50
56308;DHT22;42217;50.422;7.210;2023-03-12T02:59:23;1.80;17.00
56308;DHT22;42217;50.422;7.210;2023-03-12T03:01:58;1.70;24.20
56308;DHT22;42217;50.422;7.210;2023-03-12T03:04:25;1.70;22.90
56308;DHT22;42217;50.422;7.210;2023-03-12T03:06:51;1.80;19.90
56308;DHT22;42217;50.422;7.210;2023-03-12T03:09:17;1.80;20.10
56308;DHT22;42217;50.422;7.210;2023-03-12T03:11:43;1.80;27.50
56308;DHT22;42217;50.422;7.210;2023-03-12T03:14:09;1.70;28.60
56308;DHT22;42217;50.422;7.210;2023-03-12T03:16:35;1.80;25.90
56308;DHT22;42217;50.422;7.210;2023-03-12T03:19:01;1.80;25.70
56308;DHT22;42217;50.422;7.210;2023-03-12T03:21:27;1.80;37.20
56308;DHT22;42217;50.422;7.210;2023-03-12T03:23:53;1.70;34.00
56308;DHT22;42217;50.422;7.210;2023-03-12T03:26:20;1.70;39.20
56308;DHT22;42217;50.422;7.210;2023-03-12T03:28:46;1.80;46.30
56308;DHT22;42217;50.422;7.210;2023-03-12T03:31:12;1.80;42.00
56308;DHT22;42217;50.422;7.210;2023-03-12T03:33:38;1.80;44.70
56308;DHT22;42217;50.422;7.210;2023-03-12T03:36:06;1.70;50.60
56308;DHT22;42217;50.422;7.210;2023-03-12T03:38:33;1.70;55.80
56308;DHT22;42217;50.422;7.210;2023-03-12T03:40:59;1.80;56.50
56308;DHT22;42217;50.422;7.210;2023-03-12T03:43:25;1.70;66.80
56308;DHT22;42217;50.422;7.210;2023-03-12T03:45:58;1.60;61.70
56308;DHT22;42217;50.422;7.210;2023-03-12T03:48:24;1.70;60.60
56308;DHT22;42217;50.422;7.210;2023-03-12T03:50:50;1.80;58.50
56308;DHT22;42217;50.422;7.210;2023-03-12T03:53:16;1.90;58.60
56308;DHT22;42217;50.422;7.210;2023-03-12T03:55:44;1.80;68.40
56308;DHT22;42217;50.422;7.210;2023-03-12T03:58:10;1.70;69.70
56308;DHT22;42217;50.422;7.210;2023-03-12T04:00:37;1.70;71.40
56308;DHT22;42217;50.422;7.210;2023-03-12T04:03:02;1.70;79.50
56308;DHT22;42217;50.422;7.210;2023-03-12T04:05:28;1.80;77.50
56308;DHT22;42217;50.422;7.210;2023-03-12T04:07:54;1.80;79.60
56308;DHT22;42217;50.422;7.210;2023-03-12T04:10:22;1.70;88.30
56308;DHT22;42217;50.422;7.210;2023-03-12T04:12:49;1.70;90.50
56308;DHT22;42217;50.422;7.210;2023-03-12T04:15:15;1.60;92.90
56308;DHT22;42217;50.422;7.210;2023-03-12T04:17:41;1.60;97.70
56308;DHT22;42217;50.422;7.210;2023-03-12T04:20:07;1.80;99.90
56308;DHT22;42217;50.422;7.210;2023-03-12T04:22:34;1.80;99.90
56308;DHT22;42217;50.422;7.210;2023-03-12T04:24:59;1.80;99.90
56308;DHT22;42217;50.422;7.210;2023-03-12T04:27:26;1.70;99.90
56308;DHT22;42217;50.422;7.210;2023-03-12T04:29:51;1.50;99.90
56308;DHT22;42217;50.422;7.210;2023-03-12T04:32:17;1.40;99.90
56308;DHT22;42217;50.422;7.210;2023-03-12T04:34:43;1.20;99.90
56308;DHT22;42217;50.422;7.210;2023-03-12T04:37:09;1.00;99.90
56308;DHT22;42217;50.422;7.210;2023-03-12T04:39:42;0.80;99.90
56308;DHT22;42217;50.422;7.210;2023-03-12T04:42:08;0.60;99.90
56308;DHT22;42217;50.422;7.210;2023-03-12T04:44:34;0.50;99.90
56308;DHT22;42217;50.422;7.210;2023-03-12T04:47:01;0.50;99.90
56308;DHT22;42217;50.422;7.210;2023-03-12T04:49:26;0.40;99.90
56308;DHT22;42217;50.422;7.210;2023-03-12T04:51:52;0.40;99.90
56308;DHT22;42217;50.422;7.210;2023-03-12T04:54:18;0.40;99.90
56308;DHT22;42217;50.422;7.210;2023-03-12T04:56:46;0.30;99.90
56308;DHT22;42217;50.422;7.210;2023-03-12T04:59:12;0.30;99.90
56308;DHT22;42217;50.422;7.210;2023-03-12T05:01:38;0.40;99.90
56308;DHT22;42217;50.422;7.210;2023-03-12T05:04:04;0.30;99.90
56308;DHT22;42217;50.422;7.210;2023-03-12T05:06:30;0.40;99.90
56308;DHT22;42217;50.422;7.210;2023-03-12T05:08:56;0.30;99.90
56308;DHT22;42217;50.422;7.210;2023-03-12T05:11:22;0.40;99.90
56308;DHT22;42217;50.422;7.210;2023-03-12T05:13:48;0.30;99.90
56308;DHT22;42217;50.422;7.210;2023-03-12T05:16:14;0.30;99.90
56308;DHT22;42217;50.422;7.210;2023-03-12T05:18:41;0.30;99.90
56308;DHT22;42217;50.422;7.210;2023-03-12T05:21:11;0.30;99.90
56308;DHT22;42217;50.422;7.210;2023-03-12T05:23:37;0.30;99.90
56308;DHT22;42217;50.422;7.210;2023-03-12T05:26:05;0.20;99.90
56308;DHT22;42217;50.422;7.210;2023-03-12T05:28:31;0.30;99.90
56308;DHT22;42217;50.422;7.210;2023-03-12T05:30:59;0.30;99.90
56308;DHT22;42217;50.422;7.210;2023-03-12T05:33:26;0.40;99.90
56308;DHT22;42217;50.422;7.210;2023-03-12T05:35:52;0.50;99.90
56308;DHT22;42217;50.422;7.210;2023-03-12T05:38:18;0.60;99.90
56308;DHT22;42217;50.422;7.210;2023-03-12T05:40:51;0.60;99.90
56308;DHT22;42217;50.422;7.210;2023-03-12T05:43:20;0.80;99.90
56308;DHT22;42217;50.422;7.210;2023-03-12T05:45:47;0.80;99.90
56308;DHT22;42217;50.422;7.210;2023-03-12T05:48:13;0.90;99.90
56308;DHT22;42217;50.422;7.210;2023-03-12T05:50:39;1.00;99.90
56308;DHT22;42217;50.422;7.210;2023-03-12T05:53:04;1.00;99.90
56308;DHT22;42217;50.422;7.210;2023-03-12T05:55:34;1.00;99.90
56308;DHT22;42217;50.422;7.210;2023-03-12T05:58:00;1.10;99.90
56308;DHT22;42217;50.422;7.210;2023-03-12T06:00:26;1.10;99.90
56308;DHT22;42217;50.422;7.210;2023-03-12T06:02:51;1.10;99.90
56308;DHT22;42217;50.422;7.210;2023-03-12T06:05:17;1.00;99.90
56308;DHT22;42217;50.422;7.210;2023-03-12T06:07:43;1.10;99.90
56308;DHT22;42217;50.422;7.210;2023-03-12T06:10:09;1.00;99.90
56308;DHT22;42217;50.422;7.210;2023-03-12T06:12:35;1.10;99.90
56308;DHT22;42217;50.422;7.210;2023-03-12T06:15:00;1.00;99.90
56308;DHT22;42217;50.422;7.210;2023-03-12T06:17:28;1.00;99.90
56308;DHT22;42217;50.422;7.210;2023-03-12T06:19:54;1.00;99.90
56308;DHT22;42217;50.422;7.210;2023-03-12T06:22:20;1.00;99.90
56308;DHT22;42217;50.422;7.210;2023-03-12T06:24:46;1.00;99.90
56308;DHT22;42217;50.422;7.210;2023-03-12T06:27:13;1.10;99.90
56308;DHT22;42217;50.422;7.210;2023-03-12T06:29:39;1.10;99.90
56308;DHT22;42217;50.422;7.210;2023-03-12T06:32:05;1.10;99.90
56308;DHT22;42217;50.422;7.210;2023-03-12T06:34:31;1.20;99.90
56308;DHT22;42217;50.422;7.210;2023-03-12T06:36:57;1.20;99.90
56308;DHT22;42217;50.422;7.210;2023-03-12T06:39:23;1.20;99.90
56308;DHT22;42217;50.422;7.210;2023-03-12T06:41:49;1.20;99.90
56308;DHT22;42217;50.422;7.210;2023-03-12T06:44:14;1.20;99.90
56308;DHT22;42217;50.422;7.210;2023-03-12T06:46:40;1.30;99.90
56308;DHT22;42217;50.422;7.210;2023-03-12T06:49:06;1.30;99.90
56308;DHT22;42217;50.422;7.210;2023-03-12T06:51:32;1.30;99.90
56308;DHT22;42217;50.422;7.210;2023-03-12T06:53:57;1.20;99.90
56308;DHT22;42217;50.422;7.210;2023-03-12T06:56:27;1.20;99.90
56308;DHT22;42217;50.422;7.210;2023-03-12T06:58:53;1.30;99.90
56308;DHT22;42217;50.422;7.210;2023-03-12T07:01:19;1.30;99.90
56308;DHT22;42217;50.422;7.210;2023-03-12T07:03:45;1.20;99.90
56308;DHT22;42217;50.422;7.210;2023-03-12T07:06:19;1.30;99.90
56308;DHT22;42217;50.422;7.210;2023-03-12T07:08:45;1.20;99.90
56308;DHT22;42217;50.422;7.210;2023-03-12T07:11:12;1.30;99.90
56308;DHT22;42217;50.422;7.210;2023-03-12T07:13:39;1.40;99.90
56308;DHT22;42217;50.422;7.210;2023-03-12T07:16:05;1.60;99.90
56308;DHT22;42217;50.422;7.210;2023-03-12T07:18:31;1.70;99.90
56308;DHT22;42217;50.422;7.210;2023-03-12T07:20:57;1.80;99.90
56308;DHT22;42217;50.422;7.210;2023-03-12T07:23:23;1.90;99.90
56308;DHT22;42217;50.422;7.210;2023-03-12T07:25:49;1.90;99.90
56308;DHT22;42217;50.422;7.210;2023-03-12T07:28:16;1.90;99.90
56308;DHT22;42217;50.422;7.210;2023-03-12T07:30:42;2.10;99.90
56308;DHT22;42217;50.422;7.210;2023-03-12T07:33:15;2.10;99.90
56308;DHT22;42217;50.422;7.210;2023-03-12T07:35:41;2.10;99.90
56308;DHT22;42217;50.422;7.210;2023-03-12T07:38:07;2.10;99.90
56308;DHT22;42217;50.422;7.210;2023-03-12T07:40:34;2.30;99.90
56308;DHT22;42217;50.422;7.210;2023-03-12T07:43:00;2.40;99.90
56308;DHT22;42217;50.422;7.210;2023-03-12T07:45:26;2.60;99.90
56308;DHT22;42217;50.422;7.210;2023-03-12T07:47:52;2.70;99.90
56308;DHT22;42217;50.422;7.210;2023-03-12T07:50:18;2.70;99.90
56308;DHT22;42217;50.422;7.210;2023-03-12T07:52:45;2.80;99.90
56308;DHT22;42217;50.422;7.210;2023-03-12T07:55:11;2.80;99.90
56308;DHT22;42217;50.422;7.210;2023-03-12T07:57:38;2.80;99.90
56308;DHT22;42217;50.422;7.210;2023-03-12T08:00:05;2.90;99.90
56308;DHT22;42217;50.422;7.210;2023-03-12T08:02:34;2.90;99.90
56308;DHT22;42217;50.422;7.210;2023-03-12T08:05:00;3.20;99.90
56308;DHT22;42217;50.422;7.210;2023-03-12T08:07:29;3.20;99.90
56308;DHT22;42217;50.422;7.210;2023-03-12T08:10:01;3.30;99.90
56308;DHT22;42217;50.422;7.210;2023-03-12T08:12:27;3.40;99.90
56308;DHT22;42217;50.422;7.210;2023-03-12T08:14:53;3.40;99.90
56308;DHT22;42217;50.422;7.210;2023-03-12T08:17:22;3.40;99.90
56308;DHT22;42217;50.422;7.210;2023-03-12T08:19:53;3.70;99.90
56308;DHT22;42217;50.422;7.210;2023-03-12T08:22:19;3.90;99.90
56308;DHT22;42217;50.422;7.210;2023-03-12T08:24:44;4.10;99.90
56308;DHT22;42217;50.422;7.210;2023-03-12T08:27:16;4.20;99.90
56308;DHT22;42217;50.422;7.210;2023-03-12T08:29:41;4.30;99.90
56308;DHT22;42217;50.422;7.210;2023-03-12T08:32:08;4.20;99.90
56308;DHT22;42217;50.422;7.210;2023-03-12T08:34:35;4.10;99.90
56308;DHT22;42217;50.422;7.210;2023-03-12T08:37:04;4.00;99.90
56308;DHT22;42217;50.422;7.210;2023-03-12T08:39:30;4.10;99.90
56308;DHT22;42217;50.422;7.210;2023-03-12T08:41:59;4.30;99.90
56308;DHT22;42217;50.422;7.210;2023-03-12T08:44:25;4.50;99.90
56308;DHT22;42217;50.422;7.210;2023-03-12T08:46:51;4.70;99.90
56308;DHT22;42217;50.422;7.210;2023-03-12T08:49:18;4.90;99.90
56308;DHT22;42217;50.422;7.210;2023-03-12T08:51:43;5.20;99.90
56308;DHT22;42217;50.422;7.210;2023-03-12T08:54:09;5.50;99.90
56308;DHT22;42217;50.422;7.210;2023-03-12T08:56:35;5.70;99.90
56308;DHT22;42217;50.422;7.210;2023-03-12T08:59:10;5.50;99.90
56308;DHT22;42217;50.422;7.210;2023-03-12T09:01:36;5.30;99.90
56308;DHT22;42217;50.422;7.210;2023-03-12T09:04:03;5.40;99.90
56308;DHT22;42217;50.422;7.210;2023-03-12T09:06:30;5.80;99.90
56308;DHT22;42217;50.422;7.210;2023-03-12T09:08:56;6.10;99.90
56308;DHT22;42217;50.422;7.210;2023-03-12T09:11:22;6.50;99.90
56308;DHT22;42217;50.422;7.210;2023-03-12T09:13:48;6.60;99.90
56308;DHT22;42217;50.422;7.210;2023-03-12T09:16:13;6.70;99.90
56308;DHT22;42217;50.422;7.210;2023-03-12T09:18:39;6.70;99.90
56308;DHT22;42217;50.422;7.210;2023-03-12T09:21:05;7.00;99.90
56308;DHT22;42217;50.422;7.210;2023-03-12T09:23:31;7.10;99.90
56308;DHT22;42217;50.422;7.210;2023-03-12T09:25:57;7.40;99.90
56308;DHT22;42217;50.422;7.210;2023-03-12T09:28:23;7.50;99.90
56308;DHT22;42217;50.422;7.210;2023-03-12T09:30:48;7.40;99.90
56308;DHT22;42217;50.422;7.210;2023-03-12T09:33:14;7.30;99.90
56308;DHT22;42217;50.422;7.210;2023-03-12T09:35:41;7.20;99.90
56308;DHT22;42217;50.422;7.210;2023-03-12T09:38:14;7.10;99.90
56308;DHT22;42217;50.422;7.210;2023-03-12T09:40:45;7.20;99.90
56308;DHT22;42217;50.422;7.210;2023-03-12T09:45:57;7.70;99.90
56308;DHT22;42217;50.422;7.210;2023-03-12T09:48:35;7.90;99.90
56308;DHT22;42217;50.422;7.210;2023-03-12T09:51:16;7.90;99.90
56308;DHT22;42217;50.422;7.210;2023-03-12T09:54:04;8.10;99.90
56308;DHT22;42217;50.422;7.210;2023-03-12T09:56:32;8.40;99.90
56308;DHT22;42217;50.422;7.210;2023-03-12T09:58:58;8.70;99.90
56308;DHT22;42217;50.422;7.210;2023-03-12T10:01:48;8.70;99.90
56308;DHT22;42217;50.422;7.210;2023-03-12T10:06:57;8.90;99.90
56308;DHT22;42217;50.422;7.210;2023-03-12T10:16:15;8.90;99.90
56308;DHT22;42217;50.422;7.210;2023-03-12T10:27:14;8.80;99.90
56308;DHT22;42217;50.422;7.210;2023-03-12T10:29:42;8.90;99.90
56308;DHT22;42217;50.422;7.210;2023-03-12T10:32:13;9.10;99.90
56308;DHT22;42217;50.422;7.210;2023-03-12T10:34:51;9.20;99.90
56308;DHT22;42217;50.422;7.210;2023-03-12T10:37:28;9.20;99.90
56308;DHT22;42217;50.422;7.210;2023-03-12T10:39:55;9.20;99.90
56308;DHT22;42217;50.422;7.210;2023-03-12T10:42:26;9.10;99.90
56308;DHT22;42217;50.422;7.210;2023-03-12T10:47:43;9.10;99.90
56308;DHT22;42217;50.422;7.210;2023-03-12T10:50:24;9.00;99.90
56308;DHT22;42217;50.422;7.210;2023-03-12T10:52:52;9.10;99.90
56308;DHT22;42217;50.422;7.210;2023-03-12T10:55:38;9.30;99.90
56308;DHT22;42217;50.422;7.210;2023-03-12T10:58:06;9.40;99.90
56308;DHT22;42217;50.422;7.210;2023-03-12T11:00:33;9.60;99.90
56308;DHT22;42217;50.422;7.210;2023-03-12T11:03:05;9.70;99.90
56308;DHT22;42217;50.422;7.210;2023-03-12T11:05:44;9.70;99.90
56308;DHT22;42217;50.422;7.210;2023-03-12T11:11:44;9.90;99.90
56308;DHT22;42217;50.422;7.210;2023-03-12T11:14:30;10.10;99.90
56308;DHT22;42217;50.422;7.210;2023-03-12T11:17:19;10.20;99.90
56308;DHT22;42217;50.422;7.210;2023-03-12T11:19:45;10.40;99.90
56308;DHT22;42217;50.422;7.210;2023-03-12T11:22:11;10.50;99.90
56308;DHT22;42217;50.422;7.210;2023-03-12T11:25:00;10.70;99.90
56308;DHT22;42217;50.422;7.210;2023-03-12T11:27:37;10.90;99.90
56308;DHT22;42217;50.422;7.210;2023-03-12T11:30:10;11.00;99.90
56308;DHT22;42217;50.422;7.210;2023-03-12T11:32:48;11.30;99.90
56308;DHT22;42217;50.422;7.210;2023-03-12T11:35:22;11.50;99.90
56308;DHT22;42217;50.422;7.210;2023-03-12T11:38:31;11.80;99.90
56308;DHT22;42217;50.422;7.210;2023-03-12T11:41:12;12.20;99.60
56308;DHT22;42217;50.422;7.210;2023-03-12T11:44:25;12.40;98.90
56308;DHT22;42217;50.422;7.210;2023-03-12T11:49:59;12.30;93.90
56308;DHT22;42217;50.422;7.210;2023-03-12T11:58:17;12.40;96.60
56308;DHT22;42217;50.422;7.210;2023-03-12T12:09:26;12.70;95.80
56308;DHT22;42217;50.422;7.210;2023-03-12T12:12:11;12.50;94.30
56308;DHT22;42217;50.422;7.210;2023-03-12T12:20:03;11.80;99.80
56308;DHT22;42217;50.422;7.210;2023-03-12T12:22:56;11.60;99.90
56308;DHT22;42217;50.422;7.210;2023-03-12T12:31:51;11.60;99.90
56308;DHT22;42217;50.422;7.210;2023-03-12T12:37:12;11.80;99.90
56308;DHT22;42217;50.422;7.210;2023-03-12T12:39:41;12.10;99.90
56308;DHT22;42217;50.422;7.210;2023-03-12T12:42:33;12.10;97.00
56308;DHT22;42217;50.422;7.210;2023-03-12T12:45:12;12.10;99.90
56308;DHT22;42217;50.422;7.210;2023-03-12T12:47:51;12.20;97.00
56308;DHT22;42217;50.422;7.210;2023-03-12T12:50:25;12.30;97.60
56308;DHT22;42217;50.422;7.210;2023-03-12T12:53:04;12.40;95.50
56308;DHT22;42217;50.422;7.210;2023-03-12T12:55:47;12.40;96.00
56308;DHT22;42217;50.422;7.210;2023-03-12T12:58:31;12.20;97.80
56308;DHT22;42217;50.422;7.210;2023-03-12T13:01:05;12.40;97.00
56308;DHT22;42217;50.422;7.210;2023-03-12T13:03:31;12.70;96.10
56308;DHT22;42217;50.422;7.210;2023-03-12T13:06:02;12.70;95.60
56308;DHT22;42217;50.422;7.210;2023-03-12T13:11:27;12.30;99.70
56308;DHT22;42217;50.422;7.210;2023-03-12T13:16:38;12.20;99.70
56308;DHT22;42217;50.422;7.210;2023-03-12T13:19:23;12.10;99.90
56308;DHT22;42217;50.422;7.210;2023-03-12T13:24:41;12.00;99.90
56308;DHT22;42217;50.422;7.210;2023-03-12T13:35:33;11.20;99.90
56308;DHT22;42217;50.422;7.210;2023-03-12T13:41:39;11.80;99.90
56308;DHT22;42217;50.422;7.210;2023-03-12T14:01:42;12.60;99.90
56308;DHT22;42217;50.422;7.210;2023-03-12T14:04:17;12.40;99.90
56308;DHT22;42217;50.422;7.210;2023-03-12T14:12:51;11.90;99.90
56308;DHT22;42217;50.422;7.210;2023-03-12T14:15:33;11.90;99.90
56308;DHT22;42217;50.422;7.210;2023-03-12T14:18:22;12.20;99.90
56308;DHT22;42217;50.422;7.210;2023-03-12T14:20:58;12.10;99.90
56308;DHT22;42217;50.422;7.210;2023-03-12T14:23:32;12.10;99.90
56308;DHT22;42217;50.422;7.210;2023-03-12T14:26:02;11.90;99.90
56308;DHT22;42217;50.422;7.210;2023-03-12T14:28:31;11.70;99.90
56308;DHT22;42217;50.422;7.210;2023-03-12T14:31:12;11.40;99.90
56308;DHT22;42217;50.422;7.210;2023-03-12T14:33:59;11.20;99.90
56308;DHT22;42217;50.422;7.210;2023-03-12T14:36:41;11.20;99.90
56308;DHT22;42217;50.422;7.210;2023-03-12T14:39:29;11.30;99.90
56308;DHT22;42217;50.422;7.210;2023-03-12T14:42:26;11.60;99.90
56308;DHT22;42217;50.422;7.210;2023-03-12T14:47:59;12.00;99.30
56308;DHT22;42217;50.422;7.210;2023-03-12T14:50:29;12.10;91.50
56308;DHT22;42217;50.422;7.210;2023-03-12T14:53:11;12.10;97.80
56308;DHT22;42217;50.422;7.210;2023-03-12T14:55:40;12.20;91.60
56308;DHT22;42217;50.422;7.210;2023-03-12T14:58:15;12.20;89.80
56308;DHT22;42217;50.422;7.210;2023-03-12T15:00:59;12.20;85.90
56308;DHT22;42217;50.422;7.210;2023-03-12T15:03:26;12.00;88.90
56308;DHT22;42217;50.422;7.210;2023-03-12T15:05:56;11.90;89.20
56308;DHT22;42217;50.422;7.210;2023-03-12T15:08:29;11.80;86.70
56308;DHT22;42217;50.422;7.210;2023-03-12T15:10:58;12.00;80.90
56308;DHT22;42217;50.422;7.210;2023-03-12T15:13:27;11.90;83.30
56308;DHT22;42217;50.422;7.210;2023-03-12T15:15:58;11.90;83.00
56308;DHT22;42217;50.422;7.210;2023-03-12T15:18:28;11.70;87.10
56308;DHT22;42217;50.422;7.210;2023-03-12T15:21:04;11.50;85.10
56308;DHT22;42217;50.422;7.210;2023-03-12T15:23:33;11.50;91.70
56308;DHT22;42217;50.422;7.210;2023-03-12T15:26:30;11.50;87.10
56308;DHT22;42217;50.422;7.210;2023-03-12T15:29:42;11.60;90.60
56308;DHT22;42217;50.422;7.210;2023-03-12T15:32:17;11.50;90.30
56308;DHT22;42217;50.422;7.210;2023-03-12T15:35:11;11.50;91.80
56308;DHT22;42217;50.422;7.210;2023-03-12T15:37:38;11.60;90.00
56308;DHT22;42217;50.422;7.210;2023-03-12T15:40:25;11.70;83.50
56308;DHT22;42217;50.422;7.210;2023-03-12T15:43:19;11.90;79.40
56308;DHT22;42217;50.422;7.210;2023-03-12T15:49:37;12.50;72.40
56308;DHT22;42217;50.422;7.210;2023-03-12T15:55:03;12.00;78.40
56308;DHT22;42217;50.422;7.210;2023-03-12T15:57:52;12.00;78.60
56308;DHT22;42217;50.422;7.210;2023-03-12T16:03:13;11.70;86.50
56308;DHT22;42217;50.422;7.210;2023-03-12T16:05:40;11.60;90.60
56308;DHT22;42217;50.422;7.210;2023-03-12T16:08:21;11.40;90.60
56308;DHT22;42217;50.422;7.210;2023-03-12T16:10:50;11.40;93.80
56308;DHT22;42217;50.422;7.210;2023-03-12T16:13:20;11.30;95.50
56308;DHT22;42217;50.422;7.210;2023-03-12T16:15:50;11.20;96.30
56308;DHT22;42217;50.422;7.210;2023-03-12T16:18:21;11.10;97.70
56308;DHT22;42217;50.422;7.210;2023-03-12T16:20:53;11.00;99.80
56308;DHT22;42217;50.422;7.210;2023-03-12T16:23:23;11.00;99.10
56308;DHT22;42217;50.422;7.210;2023-03-12T16:25:55;10.90;98.80
56308;DHT22;42217;50.422;7.210;2023-03-12T16:28:37;11.00;97.40
56308;DHT22;42217;50.422;7.210;2023-03-12T16:31:14;11.10;95.70
56308;DHT22;42217;50.422;7.210;2023-03-12T16:33:41;11.10;95.90
56308;DHT22;42217;50.422;7.210;2023-03-12T16:36:17;11.00;95.70
56308;DHT22;42217;50.422;7.210;2023-03-12T16:38:45;11.00;94.30
56308;DHT22;42217;50.422;7.210;2023-03-12T16:41:15;10.90;96.30
56308;DHT22;42217;50.422;7.210;2023-03-12T16:43:50;10.90;94.90
56308;DHT22;42217;50.422;7.210;2023-03-12T16:46:20;10.90;95.50
56308;DHT22;42217;50.422;7.210;2023-03-12T16:48:53;10.80;94.80
56308;DHT22;42217;50.422;7.210;2023-03-12T16:51:24;10.80;96.30
56308;DHT22;42217;50.422;7.210;2023-03-12T16:53:56;10.80;95.30
56308;DHT22;42217;50.422;7.210;2023-03-12T16:56:26;10.70;95.80
56308;DHT22;42217;50.422;7.210;2023-03-12T16:59:25;10.70;95.40
56308;DHT22;42217;50.422;7.210;2023-03-12T17:01:54;10.70;94.10
56308;DHT22;42217;50.422;7.210;2023-03-12T17:04:32;10.70;93.40
56308;DHT22;42217;50.422;7.210;2023-03-12T17:07:06;10.60;89.00
56308;DHT22;42217;50.422;7.210;2023-03-12T17:09:35;10.40;92.40
56308;DHT22;42217;50.422;7.210;2023-03-12T17:12:18;10.30;92.30
56308;DHT22;42217;50.422;7.210;2023-03-12T17:18:17;10.30;89.50
56308;DHT22;42217;50.422;7.210;2023-03-12T17:20:56;10.20;93.30
56308;DHT22;42217;50.422;7.210;2023-03-12T17:23:25;10.10;93.70
56308;DHT22;42217;50.422;7.210;2023-03-12T17:25:55;10.10;94.50
56308;DHT22;42217;50.422;7.210;2023-03-12T17:31:29;10.00;97.10
56308;DHT22;42217;50.422;7.210;2023-03-12T17:34:00;10.20;96.10
56308;DHT22;42217;50.422;7.210;2023-03-12T17:36:47;10.20;97.00
56308;DHT22;42217;50.422;7.210;2023-03-12T17:39:33;10.10;97.40
56308;DHT22;42217;50.422;7.210;2023-03-12T17:42:05;10.10;98.30
56308;DHT22;42217;50.422;7.210;2023-03-12T17:44:33;10.00;99.00
56308;DHT22;42217;50.422;7.210;2023-03-12T17:47:03;10.00;99.40
56308;DHT22;42217;50.422;7.210;2023-03-12T17:52:40;9.80;99.90
56308;DHT22;42217;50.422;7.210;2023-03-12T17:55:08;9.70;99.90
56308;DHT22;42217;50.422;7.210;2023-03-12T17:57:45;9.70;99.90
56308;DHT22;42217;50.422;7.210;2023-03-12T18:00:11;9.50;99.90
56308;DHT22;42217;50.422;7.210;2023-03-12T18:03:06;9.30;99.90
56308;DHT22;42217;50.422;7.210;2023-03-12T18:05:38;9.10;99.90
56308;DHT22;42217;50.422;7.210;2023-03-12T18:08:09;9.10;99.90
56308;DHT22;42217;50.422;7.210;2023-03-12T18:10:50;9.00;99.90
56308;DHT22;42217;50.422;7.210;2023-03-12T18:13:19;9.20;99.90
56308;DHT22;42217;50.422;7.210;2023-03-12T18:15:57;9.50;96.10